createdAt,value
2019-03-27T00:01:31.429Z,3.30
2019-03-27T00:04:01.012Z,3.10
2019-03-27T00:06:31.146Z,3.10
2019-03-27T00:09:01.081Z,3.17
2019-03-27T00:11:32.539Z,2.58
2019-03-27T00:14:02.269Z,2.98
2019-03-27T00:16:32.068Z,2.80
2019-03-27T00:19:01.983Z,2.83
2019-03-27T00:21:31.591Z,2.77
2019-03-27T00:24:01.443Z,3.08
2019-03-27T00:26:31.148Z,3.20
2019-03-27T00:29:01.072Z,3.10
2019-03-27T00:31:30.605Z,2.52
2019-03-27T00:34:00.186Z,2.55
2019-03-27T00:36:30.080Z,2.20
2019-03-27T00:38:59.774Z,2.42
2019-03-27T00:41:29.635Z,3.55
2019-03-27T00:43:59.127Z,2.58
2019-03-27T00:46:29.054Z,2.92
2019-03-27T00:48:58.816Z,2.55
2019-03-27T00:51:28.398Z,2.40
2019-03-27T00:53:57.911Z,2.50
2019-03-27T00:56:27.561Z,2.47
2019-03-27T00:58:57.385Z,2.80
2019-03-27T01:01:27.230Z,2.52
2019-03-27T01:03:56.797Z,2.70
2019-03-27T01:06:26.721Z,2.80
2019-03-27T01:08:56.738Z,3.05
2019-03-27T01:11:26.859Z,2.50
2019-03-27T01:13:56.862Z,3.10
2019-03-27T01:16:26.871Z,3.02
2019-03-27T01:18:57.974Z,3.42
2019-03-27T01:21:28.008Z,3.30
2019-03-27T01:23:57.971Z,3.70
2019-03-27T01:26:28.605Z,3.40
2019-03-27T01:28:58.679Z,3.40
2019-03-27T01:31:28.710Z,4.08
2019-03-27T01:33:58.735Z,3.72
2019-03-27T01:36:28.889Z,3.70
2019-03-27T01:38:58.860Z,3.67
2019-03-27T01:41:29.607Z,3.15
2019-03-27T01:43:59.133Z,3.50
2019-03-27T01:46:28.958Z,3.12
2019-03-27T01:48:58.956Z,3.35
2019-03-27T01:51:28.582Z,3.33
2019-03-27T01:53:58.173Z,3.12
2019-03-27T01:56:28.039Z,3.95
2019-03-27T01:58:57.995Z,3.95
2019-03-27T02:01:27.604Z,3.72
2019-03-27T02:03:58.522Z,3.95
2019-03-27T02:06:28.460Z,4.22
2019-03-27T02:08:58.383Z,4.00
2019-03-27T02:11:28.325Z,4.15
2019-03-27T02:13:58.479Z,4.22
2019-03-27T02:16:28.099Z,4.28
2019-03-27T02:18:58.648Z,4.17
2019-03-27T02:21:28.295Z,4.00
2019-03-27T02:23:58.222Z,4.10
2019-03-27T02:26:28.147Z,4.50
2019-03-27T02:28:58.106Z,4.20
2019-03-27T02:31:28.431Z,4.50
2019-03-27T02:33:58.437Z,4.80
2019-03-27T02:36:28.872Z,4.67
2019-03-27T02:38:59.831Z,4.53
2019-03-27T02:41:29.827Z,4.50
2019-03-27T02:44:00.323Z,4.00
2019-03-27T02:46:30.286Z,4.55
2019-03-27T02:49:00.311Z,4.40
2019-03-27T02:51:30.305Z,4.30
2019-03-27T02:54:00.262Z,3.80
2019-03-27T02:56:30.218Z,4.80
2019-03-27T02:59:00.248Z,4.90
2019-03-27T03:01:30.163Z,4.50
2019-03-27T03:04:00.114Z,5.10
2019-03-27T03:06:30.218Z,4.47
2019-03-27T03:09:00.329Z,4.17
2019-03-27T03:11:30.638Z,3.98
2019-03-27T03:14:00.569Z,4.25
2019-03-27T03:16:41.945Z,4.28
2019-03-27T03:19:02.225Z,4.37
2019-03-27T03:21:32.202Z,4.17
2019-03-27T03:24:02.263Z,4.42
2019-03-27T03:26:32.244Z,4.62
2019-03-27T03:29:03.187Z,4.10
2019-03-27T03:31:33.271Z,4.17
2019-03-27T03:34:04.202Z,4.30
2019-03-27T03:36:34.163Z,3.80
2019-03-27T03:39:05.915Z,3.47
2019-03-27T03:41:35.840Z,4.58
2019-03-27T03:44:05.778Z,4.05
2019-03-27T03:46:35.832Z,3.72
2019-03-27T03:49:07.723Z,4.10
2019-03-27T03:51:40.196Z,4.08
2019-03-27T03:54:10.750Z,4.50
2019-03-27T03:56:42.264Z,4.33
2019-03-27T03:59:19.872Z,4.33
2019-03-27T04:01:52.968Z,4.35
2019-03-27T04:04:23.477Z,4.55
2019-03-27T04:06:53.477Z,4.37
2019-03-27T04:09:23.432Z,4.45
2019-03-27T04:11:53.353Z,3.90
2019-03-27T04:14:23.333Z,4.37
2019-03-27T04:17:17.413Z,4.70
2019-03-27T04:19:43.754Z,4.60
2019-03-27T04:22:13.684Z,4.08
2019-03-27T04:24:43.676Z,4.03
2019-03-27T04:27:13.596Z,4.37
2019-03-27T04:29:43.565Z,4.42
2019-03-27T04:32:26.186Z,4.33
2019-03-27T04:34:56.860Z,4.55
2019-03-27T04:37:26.818Z,4.47
2019-03-27T04:39:56.495Z,4.72
2019-03-27T04:42:26.337Z,4.50
2019-03-27T04:44:55.979Z,3.50
2019-03-27T04:47:31.989Z,4.22
2019-03-27T04:49:57.468Z,4.20
2019-03-27T04:52:27.101Z,4.10
2019-03-27T04:54:57.091Z,4.50
2019-03-27T04:57:27.090Z,4.80
2019-03-27T04:59:57.009Z,4.92
2019-03-27T05:02:26.999Z,4.97
2019-03-27T05:04:57.585Z,5.15
2019-03-27T05:07:27.513Z,4.47
2019-03-27T05:09:57.145Z,4.80
2019-03-27T05:12:27.140Z,5.00
2019-03-27T05:14:57.108Z,4.45
2019-03-27T05:17:26.726Z,5.08
2019-03-27T05:19:56.262Z,4.75
2019-03-27T05:22:26.147Z,5.17
2019-03-27T05:24:56.434Z,5.40
2019-03-27T05:27:26.500Z,5.55
2019-03-27T05:29:56.459Z,5.65
2019-03-27T05:32:38.722Z,6.10
2019-03-27T05:35:09.699Z,4.83
2019-03-27T05:37:40.724Z,5.47
2019-03-27T05:40:10.950Z,5.55
2019-03-27T05:42:42.546Z,5.17
2019-03-27T05:45:12.649Z,5.72
2019-03-27T05:47:42.677Z,5.53
2019-03-27T05:50:13.207Z,4.92
2019-03-27T05:52:43.137Z,6.05
2019-03-27T05:55:13.300Z,6.65
2019-03-27T05:57:43.313Z,6.20
2019-03-27T06:00:14.685Z,7.10
2019-03-27T06:02:44.630Z,6.78
2019-03-27T06:05:14.730Z,6.78
2019-03-27T06:07:44.680Z,6.30
2019-03-27T06:10:16.455Z,7.33
2019-03-27T06:12:46.711Z,6.95
2019-03-27T06:15:16.669Z,6.97
2019-03-27T06:17:46.786Z,6.20
2019-03-27T06:20:16.761Z,7.78
2019-03-27T06:22:49.478Z,6.30
2019-03-27T06:25:19.523Z,6.25
2019-03-27T06:27:49.572Z,6.55
2019-03-27T06:30:19.706Z,5.55
2019-03-27T06:32:49.813Z,5.05
2019-03-27T06:35:20.284Z,6.58
2019-03-27T06:37:50.503Z,6.05
2019-03-27T06:40:20.422Z,5.78
2019-03-27T06:42:50.458Z,5.50
2019-03-27T06:45:20.858Z,5.05
2019-03-27T06:47:50.908Z,4.87
2019-03-27T06:50:20.910Z,5.75
2019-03-27T06:52:51.195Z,6.95
2019-03-27T06:55:21.127Z,5.10
2019-03-27T06:57:51.144Z,4.95
2019-03-27T07:00:24.281Z,4.45
2019-03-27T07:02:53.961Z,5.22
2019-03-27T07:05:23.863Z,4.87
2019-03-27T07:07:53.789Z,4.17
2019-03-27T07:10:23.747Z,4.97
2019-03-27T07:12:53.438Z,4.35
2019-03-27T07:15:23.298Z,5.22
2019-03-27T07:17:52.894Z,4.55
2019-03-27T07:20:22.770Z,4.83
2019-03-27T07:22:52.695Z,4.15
2019-03-27T07:25:22.623Z,4.10
2019-03-27T07:27:52.570Z,4.00
2019-03-27T07:30:22.579Z,3.40
2019-03-27T07:32:56.232Z,2.70
2019-03-27T07:35:26.261Z,3.98
2019-03-27T07:37:57.274Z,3.67
2019-03-27T07:40:27.211Z,3.62
2019-03-27T07:42:56.810Z,3.80
2019-03-27T07:45:26.670Z,3.92
2019-03-27T07:47:56.626Z,3.25
2019-03-27T07:50:26.245Z,3.30
2019-03-27T07:52:56.112Z,2.87
2019-03-27T07:55:26.033Z,2.17
2019-03-27T07:57:55.941Z,3.30
2019-03-27T08:00:26.088Z,3.47
2019-03-27T08:02:55.703Z,3.70
2019-03-27T08:05:25.247Z,2.90
2019-03-27T08:07:55.356Z,2.90
2019-03-27T08:10:25.345Z,2.85
2019-03-27T08:12:55.252Z,2.55
2019-03-27T08:15:25.246Z,2.27
2019-03-27T08:17:55.289Z,3.10
2019-03-27T08:20:25.222Z,2.35
2019-03-27T08:22:55.199Z,2.60
2019-03-27T08:25:25.129Z,2.40
2019-03-27T08:27:54.787Z,2.70
2019-03-27T08:30:24.759Z,2.72
2019-03-27T08:32:54.832Z,3.20
2019-03-27T08:35:24.783Z,2.80
2019-03-27T08:37:55.534Z,2.62
2019-03-27T08:40:25.459Z,2.77
2019-03-27T08:42:55.064Z,2.65
2019-03-27T08:45:25.011Z,3.00
2019-03-27T08:47:54.702Z,2.80
2019-03-27T08:50:24.699Z,2.67
2019-03-27T08:52:54.665Z,2.02
2019-03-27T08:55:24.583Z,3.00
2019-03-27T08:57:55.590Z,2.98
2019-03-27T09:00:34.115Z,3.30
2019-03-27T09:03:04.095Z,3.60
2019-03-27T09:05:34.104Z,3.20
2019-03-27T09:08:03.690Z,3.80
2019-03-27T09:10:34.557Z,3.35
2019-03-27T09:13:05.447Z,3.55
2019-03-27T09:15:35.377Z,3.40
2019-03-27T09:18:05.461Z,3.50
2019-03-27T09:20:35.500Z,3.55
2019-03-27T09:23:05.449Z,3.30
2019-03-27T09:25:35.454Z,3.65
2019-03-27T09:28:05.766Z,4.30
2019-03-27T09:30:35.887Z,3.45
2019-03-27T09:33:05.981Z,3.27
2019-03-27T09:35:36.111Z,3.87
2019-03-27T09:38:06.240Z,3.75
2019-03-27T09:40:36.421Z,3.70
2019-03-27T09:43:06.411Z,3.83
2019-03-27T09:45:36.003Z,4.47
2019-03-27T09:48:05.525Z,3.87
2019-03-27T09:50:35.745Z,4.12
2019-03-27T09:53:05.663Z,3.70
2019-03-27T09:55:35.911Z,3.75
2019-03-27T09:58:05.881Z,4.00
2019-03-27T10:00:49.376Z,3.77
2019-03-27T10:03:19.439Z,3.67
2019-03-27T10:05:49.387Z,4.17
2019-03-27T10:08:19.106Z,4.00
2019-03-27T10:10:50.246Z,4.25
2019-03-27T10:13:19.843Z,3.85
2019-03-27T10:15:49.692Z,3.90
2019-03-27T10:18:19.649Z,4.15
2019-03-27T10:20:49.279Z,4.08
2019-03-27T10:23:19.206Z,4.10
2019-03-27T10:25:49.146Z,4.78
2019-03-27T10:28:19.183Z,4.75
2019-03-27T10:30:49.034Z,4.37
2019-03-27T10:33:19.144Z,4.55
2019-03-27T10:35:49.128Z,4.58
2019-03-27T10:38:19.228Z,4.00
2019-03-27T10:40:49.334Z,4.47
2019-03-27T10:43:19.437Z,4.30
2019-03-27T10:45:49.364Z,4.35
2019-03-27T10:48:19.354Z,4.08
2019-03-27T10:50:49.862Z,4.08
2019-03-27T10:53:19.848Z,4.20
2019-03-27T10:55:49.812Z,4.33
2019-03-27T10:58:19.749Z,4.60
2019-03-27T11:00:49.693Z,4.35
2019-03-27T11:03:19.642Z,4.75
2019-03-27T11:05:49.251Z,4.22
2019-03-27T11:08:19.075Z,4.50
2019-03-27T11:10:49.211Z,3.80
2019-03-27T11:13:19.134Z,3.58
2019-03-27T11:15:49.101Z,4.22
2019-03-27T11:18:19.032Z,4.15
2019-03-27T11:20:48.970Z,4.42
2019-03-27T11:23:18.925Z,3.95
2019-03-27T11:25:49.925Z,4.00
2019-03-27T11:28:20.293Z,4.20
2019-03-27T11:30:50.260Z,4.17
2019-03-27T11:33:21.262Z,4.33
2019-03-27T11:35:51.838Z,4.33
2019-03-27T11:38:21.781Z,4.08
2019-03-27T11:40:51.590Z,3.80
2019-03-27T11:43:21.604Z,4.37
2019-03-27T11:45:51.564Z,3.45
2019-03-27T11:48:24.499Z,3.92
2019-03-27T11:50:54.019Z,4.20
2019-03-27T11:53:23.567Z,4.05
2019-03-27T11:55:53.569Z,4.05
2019-03-27T11:58:23.531Z,4.05
2019-03-27T12:00:55.069Z,5.00
2019-03-27T12:03:25.293Z,4.40
2019-03-27T12:05:55.259Z,4.47
2019-03-27T12:08:25.214Z,4.65
2019-03-27T12:10:55.260Z,4.75
2019-03-27T12:13:25.194Z,4.62
2019-03-27T12:15:55.176Z,4.60
2019-03-27T12:18:25.935Z,4.95
2019-03-27T12:20:59.532Z,4.17
2019-03-27T12:23:27.444Z,4.05
2019-03-27T12:25:58.459Z,4.67
2019-03-27T12:28:28.530Z,4.97
2019-03-27T12:30:58.791Z,4.47
2019-03-27T12:33:28.750Z,4.80
2019-03-27T12:35:58.741Z,4.08
2019-03-27T12:38:28.739Z,3.55
2019-03-27T12:40:58.685Z,3.70
2019-03-27T12:43:28.647Z,4.25
2019-03-27T12:45:58.573Z,3.70
2019-03-27T12:48:28.503Z,4.00
2019-03-27T12:51:11.704Z,3.12
2019-03-27T12:53:30.350Z,3.65
2019-03-27T12:56:00.403Z,2.30
2019-03-27T12:58:30.456Z,3.40
2019-03-27T13:01:00.391Z,3.05
2019-03-27T13:03:30.296Z,3.20
2019-03-27T13:06:00.264Z,3.25
2019-03-27T13:08:30.206Z,3.02
2019-03-27T13:11:01.626Z,3.35
2019-03-27T13:13:31.582Z,3.33
2019-03-27T13:16:01.528Z,3.25
2019-03-27T13:18:31.475Z,3.00
2019-03-27T13:21:01.534Z,3.22
2019-03-27T13:23:32.535Z,4.10
2019-03-27T13:26:02.592Z,4.20
2019-03-27T13:28:32.519Z,3.92
2019-03-27T13:31:03.672Z,4.17
2019-03-27T13:33:34.284Z,4.83
2019-03-27T13:36:04.182Z,4.58
2019-03-27T13:38:33.957Z,4.43
2019-03-27T13:41:03.569Z,4.80
2019-03-27T13:43:33.105Z,4.03
2019-03-27T13:46:02.395Z,4.93
2019-03-27T13:48:32.274Z,4.83
2019-03-27T13:51:01.562Z,4.00
2019-03-27T13:53:30.935Z,4.60
2019-03-27T13:56:00.508Z,4.63
2019-03-27T13:58:29.883Z,4.30
2019-03-27T14:01:00.402Z,4.67
2019-03-27T14:03:30.074Z,4.70
2019-03-27T14:05:59.716Z,4.93
2019-03-27T14:08:29.789Z,4.62
2019-03-27T14:10:59.739Z,5.55
2019-03-27T14:13:32.531Z,5.08
2019-03-27T14:16:02.404Z,5.03
2019-03-27T14:18:31.729Z,4.97
2019-03-27T14:21:01.374Z,4.97
2019-03-27T14:23:31.004Z,4.47
2019-03-27T14:26:00.680Z,5.00
2019-03-27T14:28:30.254Z,4.13
2019-03-27T14:30:59.692Z,4.43
2019-03-27T14:33:29.087Z,4.50
2019-03-27T14:35:58.636Z,5.12
2019-03-27T14:38:28.242Z,4.80
2019-03-27T14:40:57.644Z,4.80
2019-03-27T14:43:27.845Z,4.70
2019-03-27T14:45:57.156Z,4.50
2019-03-27T14:48:26.705Z,4.53
2019-03-27T14:50:56.427Z,4.73
2019-03-27T14:53:26.103Z,4.50
2019-03-27T14:55:56.107Z,4.25
2019-03-27T14:58:52.418Z,4.53
2019-03-27T15:01:22.359Z,4.17
2019-03-27T15:03:52.286Z,4.30
2019-03-27T15:06:22.904Z,4.55
2019-03-27T15:08:52.881Z,5.72
2019-03-27T15:11:22.912Z,4.12
2019-03-27T15:13:53.005Z,4.55
2019-03-27T15:16:22.942Z,4.95
2019-03-27T15:18:52.888Z,4.10
2019-03-27T15:21:23.027Z,4.33
2019-03-27T15:23:53.665Z,4.30
2019-03-27T15:26:23.503Z,4.90
2019-03-27T15:28:53.424Z,4.40
2019-03-27T15:31:28.579Z,4.50
2019-03-27T15:33:58.172Z,4.03
2019-03-27T15:36:28.043Z,4.80
2019-03-27T15:38:58.034Z,4.33
2019-03-27T15:41:27.941Z,4.85
2019-03-27T15:43:57.539Z,4.87
2019-03-27T15:46:27.410Z,4.58
2019-03-27T15:48:57.348Z,5.10
2019-03-27T15:51:27.304Z,4.87
2019-03-27T15:53:57.258Z,4.65
2019-03-27T15:56:27.275Z,4.67
2019-03-27T15:58:57.245Z,4.33
2019-03-27T16:01:27.176Z,4.55
2019-03-27T16:03:57.379Z,4.47
2019-03-27T16:06:27.362Z,4.83
2019-03-27T16:08:57.287Z,5.08
2019-03-27T16:11:27.353Z,4.92
2019-03-27T16:13:57.396Z,5.25
2019-03-27T16:16:27.379Z,4.80
2019-03-27T16:18:57.378Z,6.10
2019-03-27T16:21:27.327Z,5.78
2019-03-27T16:24:06.272Z,5.78
2019-03-27T16:26:29.762Z,4.85
2019-03-27T16:28:59.679Z,5.25
2019-03-27T16:31:29.298Z,5.22
2019-03-27T16:33:58.903Z,5.45
2019-03-27T16:36:28.434Z,5.50
2019-03-27T16:38:58.286Z,5.40
2019-03-27T16:41:28.410Z,4.85
2019-03-27T16:43:58.665Z,4.97
2019-03-27T16:46:28.808Z,5.30
2019-03-27T16:48:58.827Z,5.30
2019-03-27T16:51:29.056Z,5.78
2019-03-27T16:54:04.881Z,5.30
2019-03-27T16:56:34.453Z,5.83
2019-03-27T16:59:04.438Z,6.05
2019-03-27T17:01:34.383Z,6.08
2019-03-27T17:04:04.475Z,6.53
2019-03-27T17:06:34.667Z,6.17
2019-03-27T17:09:07.142Z,6.70
2019-03-27T17:11:37.130Z,7.42
2019-03-27T17:14:07.407Z,6.67
2019-03-27T17:16:37.409Z,6.85
2019-03-27T17:19:07.441Z,7.50
2019-03-27T17:21:37.453Z,6.87
2019-03-27T17:24:07.383Z,7.50
2019-03-27T17:26:37.406Z,7.85
2019-03-27T17:29:07.375Z,7.50
2019-03-27T17:31:37.415Z,7.95
2019-03-27T17:34:07.288Z,8.10
2019-03-27T17:36:36.790Z,8.00
2019-03-27T17:39:08.152Z,8.18
2019-03-27T17:41:37.760Z,8.18
2019-03-27T17:44:12.399Z,9.10
2019-03-27T17:46:50.670Z,8.45
2019-03-27T17:49:20.416Z,8.48
2019-03-27T17:51:49.983Z,8.15
2019-03-27T17:54:21.022Z,8.68
2019-03-27T17:56:51.144Z,8.68
2019-03-27T17:59:21.069Z,8.70
2019-03-27T18:01:51.306Z,9.48
2019-03-27T18:04:23.855Z,9.13
2019-03-27T18:06:53.932Z,9.48
2019-03-27T18:09:23.553Z,10.10
2019-03-27T18:11:53.182Z,8.90
2019-03-27T18:14:25.545Z,9.75
2019-03-27T18:16:56.151Z,10.32
2019-03-27T18:19:25.759Z,10.23
2019-03-27T18:22:07.177Z,10.08
2019-03-27T18:24:29.577Z,11.38
2019-03-27T18:26:59.100Z,11.73
2019-03-27T18:29:28.783Z,11.97
2019-03-27T18:31:58.777Z,11.80
2019-03-27T18:34:31.931Z,11.73
2019-03-27T18:37:01.646Z,12.68
2019-03-27T18:39:31.144Z,11.95
2019-03-27T18:42:01.297Z,11.88
2019-03-27T18:44:31.125Z,12.20
2019-03-27T18:47:00.700Z,12.43
2019-03-27T18:49:30.588Z,11.73
2019-03-27T18:52:01.472Z,12.53
2019-03-27T18:54:31.592Z,12.23
2019-03-27T18:57:01.574Z,12.25
2019-03-27T18:59:31.555Z,13.35
2019-03-27T19:02:01.479Z,14.33
2019-03-27T19:04:31.603Z,14.30
2019-03-27T19:07:01.580Z,15.40
2019-03-27T19:09:31.735Z,16.87
2019-03-27T19:12:01.767Z,17.60
2019-03-27T19:14:31.867Z,17.85
2019-03-27T19:17:02.006Z,19.23
2019-03-27T19:19:33.012Z,19.10
2019-03-27T19:22:02.994Z,18.57
2019-03-27T19:24:33.162Z,19.10
2019-03-27T19:27:03.177Z,20.12
2019-03-27T19:29:32.966Z,19.75
2019-03-27T19:32:02.872Z,19.12
2019-03-27T19:34:32.660Z,20.17
2019-03-27T19:37:05.776Z,20.17
2019-03-27T19:39:35.354Z,19.85
2019-03-27T19:42:04.936Z,20.08
2019-03-27T19:44:34.850Z,21.87
2019-03-27T19:47:05.589Z,21.80
2019-03-27T19:49:35.196Z,21.65
2019-03-27T19:52:05.056Z,22.37
2019-03-27T19:54:34.663Z,23.18
2019-03-27T19:57:05.029Z,23.27
2019-03-27T19:59:35.360Z,22.95
2019-03-27T20:02:05.113Z,24.87
2019-03-27T20:04:34.646Z,24.40
2019-03-27T20:07:04.538Z,27.00
2019-03-27T20:09:34.746Z,25.55
2019-03-27T20:12:29.270Z,27.17
2019-03-27T20:15:11.285Z,26.97
2019-03-27T20:17:31.019Z,26.48
2019-03-27T20:20:01.423Z,26.23
2019-03-27T20:22:31.114Z,25.75
2019-03-27T20:25:00.662Z,26.23
2019-03-27T20:27:31.711Z,27.62
2019-03-27T20:30:01.897Z,25.30
2019-03-27T20:32:31.472Z,28.12
2019-03-27T20:35:01.332Z,27.45
2019-03-27T20:37:31.032Z,27.05
2019-03-27T20:40:00.963Z,27.75
2019-03-27T20:42:30.920Z,29.85
2019-03-27T20:45:00.539Z,30.20
2019-03-27T20:47:31.113Z,31.35
2019-03-27T20:50:01.083Z,30.40
2019-03-27T20:52:30.767Z,35.13
2019-03-27T20:55:00.322Z,35.35
2019-03-27T20:57:30.197Z,34.20
2019-03-27T20:59:59.887Z,34.27
2019-03-27T21:02:29.410Z,34.38
2019-03-27T21:04:59.330Z,35.33
2019-03-27T21:07:28.929Z,32.65
2019-03-27T21:09:59.057Z,33.48
2019-03-27T21:12:29.062Z,36.85
2019-03-27T21:14:58.995Z,33.23
2019-03-27T21:17:29.177Z,37.33
2019-03-27T21:19:59.095Z,35.05
2019-03-27T21:22:30.048Z,34.58
2019-03-27T21:25:08.508Z,35.33
2019-03-27T21:27:31.415Z,37.42
2019-03-27T21:30:01.543Z,38.58
2019-03-27T21:32:33.243Z,43.42
2019-03-27T21:35:03.595Z,41.65
2019-03-27T21:37:33.572Z,44.50
2019-03-27T21:40:05.602Z,45.03
2019-03-27T21:42:35.358Z,44.75
2019-03-27T21:45:07.735Z,44.85
2019-03-27T21:47:38.148Z,46.92
2019-03-27T21:50:13.070Z,50.78
2019-03-27T21:52:42.677Z,48.00
2019-03-27T21:55:22.335Z,50.33
2019-03-27T21:57:43.817Z,51.60
2019-03-27T22:00:20.401Z,49.55
2019-03-27T22:02:49.927Z,48.15
2019-03-27T22:05:19.817Z,51.90
2019-03-27T22:07:49.793Z,53.70
2019-03-27T22:10:19.724Z,57.30
2019-03-27T22:12:49.685Z,49.53
2019-03-27T22:15:19.699Z,48.98
2019-03-27T22:17:49.660Z,51.80
2019-03-27T22:20:19.677Z,53.13
2019-03-27T22:22:49.614Z,53.40
2019-03-27T22:25:19.603Z,43.92
2019-03-27T22:27:49.557Z,43.05
2019-03-27T22:30:20.613Z,55.58
2019-03-27T22:32:50.550Z,51.02
2019-03-27T22:35:20.495Z,56.05
2019-03-27T22:37:50.527Z,53.40
2019-03-27T22:40:20.660Z,55.67
2019-03-27T22:42:50.676Z,53.28
2019-03-27T22:45:20.710Z,56.88
2019-03-27T22:47:51.391Z,51.02
2019-03-27T22:50:21.484Z,53.20
2019-03-27T22:52:51.558Z,55.92
2019-03-27T22:55:22.611Z,56.83
2019-03-27T22:57:52.631Z,62.88
2019-03-27T23:00:24.207Z,60.05
2019-03-27T23:02:55.529Z,57.70
2019-03-27T23:05:25.429Z,60.45
2019-03-27T23:07:55.474Z,69.55
2019-03-27T23:10:25.438Z,65.55
2019-03-27T23:12:55.710Z,67.87
2019-03-27T23:15:25.662Z,64.22
2019-03-27T23:17:55.642Z,62.90
2019-03-27T23:20:25.659Z,65.65
2019-03-27T23:22:55.627Z,62.17
2019-03-27T23:25:25.559Z,63.68
2019-03-27T23:27:55.492Z,57.75
2019-03-27T23:30:25.651Z,60.98
2019-03-27T23:32:55.769Z,66.53
2019-03-27T23:35:25.715Z,72.85
2019-03-27T23:37:55.807Z,64.60
2019-03-27T23:40:25.830Z,63.98
2019-03-27T23:42:55.815Z,66.62
2019-03-27T23:45:25.814Z,65.40
2019-03-27T23:47:56.730Z,67.12
2019-03-27T23:50:29.502Z,68.60
2019-03-27T23:52:59.502Z,69.82
2019-03-27T23:55:29.510Z,69.85
2019-03-27T23:57:59.558Z,64.50
